Hauptseite
METAR-TAF:

METAR-TAF

Flughäfen :

Newcastle Airport

Newcastle upon Tyne, England

Breite: 55-02N, Länge: 001-42W, Höhe: 81 m

Beobachtung

Neuester Wetterbericht von vor 40 Minuten, um 07:20 UTC
Wind 4 kt aus Südwest, variierte zwischen Süd/Südwest und West
Temperatur 8°C
Luftfeuchtigkeit 93%
Luftdruck 1029 hPa
Sichtweite 10 km oder mehr
Leicht bewölkt in der Höhe von 4000 ft

METAR: EGNT 180720Z 23004KT 200V260 9999 FEW040 08/07 Q1029

Zeit: 09:00 (08:00 UTC)

Prognose

Neuester Wetterbericht von vor 3 Stunden und 1 Minuten, um 04:59 UTC
Gültige Prognose vom 18 um 06 UTC bis 19 um 06 UTC
Wind 6 kt aus West
Sichtweite 10 km oder mehr
Leicht bewölkt in der Höhe von 3500 ft

TAF: EGNT 180459Z 1806/1906 26006KT 9999 FEW035

Wetterbeobachtungen und Prognosen von mehr als 4000 Flughäfen (METAR und TAF Bericht).

Die verfügbaren Stationen werden durch gelbe und rote Markierungen auf der Karte dargestellt.

Führen Sie die Maus auf sie, um den Namen der Station zu sehen.

Darauf klicken, um die Beobachtung von Wetterbeobachtungen und Prognosen zu sehen.

Um die Karte zu ändern : klicken Sie auf den grünen Tasten mit einem schwarzen Kreuz Zum Vergrößern, auf den grünen Button mit einem Gedankenstrich zu verkleinern, oder auf die grünen Pfeile für benachbarte Karten.


METAR-TAF: